createdAt,value
2023-05-10T00:01:46.430Z,86.80
2023-05-10T00:04:15.060Z,86.60
2023-05-10T00:06:44.819Z,86.40
2023-05-10T00:09:13.107Z,86.20
2023-05-10T00:11:41.508Z,86.20
2023-05-10T00:14:09.704Z,86.00
2023-05-10T00:16:38.082Z,86.10
2023-05-10T00:19:06.438Z,86.00
2023-05-10T00:21:34.804Z,86.20
2023-05-10T00:24:04.815Z,86.10
2023-05-10T00:26:33.174Z,86.00
2023-05-10T00:29:01.646Z,86.00
2023-05-10T00:31:29.813Z,86.00
2023-05-10T00:33:58.369Z,86.10
2023-05-10T00:36:28.233Z,86.30
2023-05-10T00:38:56.528Z,86.20
2023-05-10T00:41:26.282Z,86.30
2023-05-10T00:43:54.521Z,86.40
2023-05-10T00:46:23.277Z,86.50
2023-05-10T00:48:51.904Z,86.40
2023-05-10T00:51:20.456Z,86.50
2023-05-10T00:53:48.985Z,86.80
2023-05-10T00:56:17.976Z,86.60
2023-05-10T00:58:50.817Z,86.70
2023-05-10T01:01:19.490Z,86.90
2023-05-10T01:03:48.710Z,86.80
2023-05-10T01:06:17.010Z,87.90
2023-05-10T01:08:45.340Z,86.80
2023-05-10T01:11:13.650Z,86.80
2023-05-10T01:13:45.364Z,87.20
2023-05-10T01:16:15.482Z,87.60
2023-05-10T01:18:44.984Z,87.70
2023-05-10T01:21:25.766Z,88.10
2023-05-10T01:24:20.609Z,88.20
2023-05-10T01:27:14.558Z,88.10
2023-05-10T01:32:43.915Z,88.10
2023-05-10T01:35:17.558Z,88.40
2023-05-10T01:37:51.679Z,88.70
2023-05-10T01:40:28.044Z,88.50
2023-05-10T01:43:05.507Z,88.60
2023-05-10T01:45:38.651Z,88.90
2023-05-10T01:48:10.659Z,89.00
2023-05-10T01:50:44.053Z,89.30
2023-05-10T01:53:14.088Z,89.20
2023-05-10T01:55:48.486Z,89.70
2023-05-10T01:58:22.321Z,89.40
2023-05-10T02:00:53.143Z,89.50
2023-05-10T02:03:25.769Z,89.70
2023-05-10T02:05:55.742Z,89.80
2023-05-10T02:08:24.827Z,90.00
2023-05-10T02:10:55.152Z,90.00
2023-05-10T02:13:25.642Z,90.10
2023-05-10T02:15:55.313Z,90.10
2023-05-10T02:18:27.893Z,90.00
2023-05-10T02:20:57.785Z,90.00
2023-05-10T02:23:27.313Z,90.00
2023-05-10T02:25:57.163Z,90.10
2023-05-10T02:28:27.172Z,90.00
2023-05-10T02:31:07.233Z,90.00
2023-05-10T02:33:37.317Z,90.00
2023-05-10T02:36:06.425Z,90.00
2023-05-10T02:38:36.983Z,90.00
2023-05-10T02:41:07.554Z,90.10
2023-05-10T02:43:37.347Z,90.20
2023-05-10T02:46:05.994Z,90.20
2023-05-10T02:48:34.300Z,90.00
2023-05-10T02:51:09.280Z,90.00
2023-05-10T02:53:40.680Z,90.00
2023-05-10T02:56:16.321Z,90.10
2023-05-10T02:58:44.547Z,90.30
2023-05-10T03:01:12.820Z,90.20
2023-05-10T03:03:41.055Z,90.20
2023-05-10T03:06:10.847Z,90.10
2023-05-10T03:08:39.250Z,90.30
2023-05-10T03:11:25.468Z,90.50
2023-05-10T03:14:05.180Z,90.40
2023-05-10T03:16:38.759Z,90.40
2023-05-10T03:19:18.614Z,90.50
2023-05-10T03:21:53.252Z,90.50
2023-05-10T03:24:24.485Z,90.40
2023-05-10T03:26:54.015Z,90.30
2023-05-10T03:29:24.197Z,90.30
2023-05-10T03:31:52.693Z,90.30
2023-05-10T03:34:26.039Z,90.20
2023-05-10T03:36:55.820Z,90.20
2023-05-10T03:39:24.112Z,90.20
2023-05-10T03:41:53.735Z,90.20
2023-05-10T03:44:22.107Z,90.20
2023-05-10T03:46:50.416Z,90.30
2023-05-10T03:49:18.679Z,90.30
2023-05-10T03:51:47.013Z,90.30
2023-05-10T03:54:16.661Z,90.30
2023-05-10T03:56:44.938Z,90.30
2023-05-10T03:59:13.368Z,90.40
2023-05-10T04:01:41.597Z,90.20
2023-05-10T04:04:09.907Z,90.20
2023-05-10T04:06:38.192Z,90.10
2023-05-10T04:09:06.559Z,90.10
2023-05-10T04:11:36.193Z,90.00
2023-05-10T04:14:04.634Z,90.00
2023-05-10T04:16:33.170Z,90.00
2023-05-10T04:19:02.164Z,89.90
2023-05-10T04:21:30.444Z,89.80
2023-05-10T04:23:58.725Z,89.80
2023-05-10T04:26:27.221Z,89.60
2023-05-10T04:28:56.844Z,89.30
2023-05-10T04:31:25.154Z,89.20
2023-05-10T04:33:53.335Z,89.20
2023-05-10T04:36:21.819Z,89.20
2023-05-10T04:38:49.937Z,88.90
2023-05-10T04:41:18.200Z,89.00
2023-05-10T04:43:46.428Z,88.30
2023-05-10T04:46:16.148Z,88.30
2023-05-10T04:48:44.422Z,87.50
2023-05-10T04:51:13.265Z,87.30
2023-05-10T04:53:43.027Z,87.40
2023-05-10T04:56:14.640Z,88.10
2023-05-10T04:58:42.870Z,87.20
2023-05-10T05:01:11.725Z,87.10
2023-05-10T05:03:41.443Z,86.60
2023-05-10T05:06:09.985Z,86.50
2023-05-10T05:08:38.192Z,86.10
2023-05-10T05:11:06.616Z,85.50
2023-05-10T05:13:34.938Z,85.50
2023-05-10T05:16:03.970Z,84.70
2023-05-10T05:18:32.228Z,84.60
2023-05-10T05:21:02.098Z,84.50
2023-05-10T05:23:30.424Z,84.10
2023-05-10T05:25:58.603Z,84.20
2023-05-10T05:28:26.939Z,84.30
2023-05-10T05:30:55.165Z,84.00
2023-05-10T05:33:23.482Z,83.60
2023-05-10T05:35:51.879Z,82.70
2023-05-10T05:38:21.510Z,82.30
2023-05-10T05:40:49.773Z,82.40
2023-05-10T05:43:18.114Z,82.30
2023-05-10T05:45:46.992Z,82.20
2023-05-10T05:48:15.370Z,82.40
2023-05-10T05:50:43.805Z,81.80
2023-05-10T05:53:12.091Z,81.80
2023-05-10T05:55:41.842Z,81.40
2023-05-10T05:58:10.166Z,81.30
2023-05-10T06:00:38.372Z,81.30
2023-05-10T06:03:07.448Z,81.20
2023-05-10T06:05:35.844Z,80.20
2023-05-10T06:08:04.160Z,80.40
2023-05-10T06:10:32.667Z,80.30
2023-05-10T06:13:02.541Z,79.80
2023-05-10T06:15:30.833Z,79.80
2023-05-10T06:17:59.136Z,79.70
2023-05-10T06:20:27.752Z,79.70
2023-05-10T06:36:28.302Z,78.10
2023-05-10T06:38:56.488Z,79.90
2023-05-10T06:41:24.974Z,78.40
2023-05-10T06:44:02.662Z,77.70
2023-05-10T06:46:30.959Z,77.40
2023-05-10T06:48:59.254Z,77.40
2023-05-10T06:51:28.951Z,77.20
2023-05-10T06:53:57.275Z,75.90
2023-05-10T06:56:25.442Z,75.90
2023-05-10T06:58:53.828Z,75.30
2023-05-10T07:01:22.213Z,74.70
2023-05-10T07:03:50.642Z,74.60
2023-05-10T07:06:32.398Z,74.90
2023-05-10T07:09:03.577Z,74.50
2023-05-10T07:11:31.815Z,74.70
2023-05-10T07:14:00.768Z,74.60
2023-05-10T07:16:29.810Z,74.60
2023-05-10T07:19:00.048Z,73.90
2023-05-10T07:21:29.743Z,73.60
2023-05-10T07:23:58.259Z,74.40
2023-05-10T07:26:27.867Z,73.90
2023-05-10T07:28:56.141Z,74.40
2023-05-10T07:31:24.484Z,74.10
2023-05-10T07:33:52.812Z,74.10
2023-05-10T07:36:21.389Z,73.90
2023-05-10T07:38:50.560Z,72.60
2023-05-10T07:41:22.051Z,72.50
2023-05-10T07:43:51.901Z,72.80
2023-05-10T07:46:20.874Z,72.50
2023-05-10T07:48:49.063Z,72.50
2023-05-10T07:51:17.531Z,72.20
2023-05-10T07:53:45.767Z,70.80
2023-05-10T07:56:26.246Z,71.20
2023-05-10T07:58:56.438Z,71.70
2023-05-10T08:01:25.371Z,72.00
2023-05-10T08:03:54.564Z,72.30
2023-05-10T08:06:23.298Z,71.40
2023-05-10T08:08:52.520Z,71.10
2023-05-10T08:11:21.583Z,69.20
2023-05-10T08:13:50.670Z,68.90
2023-05-10T08:16:20.573Z,69.70
2023-05-10T08:18:50.293Z,70.30
2023-05-10T08:21:18.651Z,70.70
2023-05-10T08:23:46.896Z,69.50
2023-05-10T08:26:15.344Z,68.60
2023-05-10T08:28:43.548Z,67.80
2023-05-10T08:31:11.924Z,68.70
2023-05-10T08:33:42.417Z,68.70
2023-05-10T08:36:15.296Z,67.50
2023-05-10T08:38:43.619Z,67.20
2023-05-10T08:41:13.299Z,67.30
2023-05-10T08:43:42.594Z,67.30
2023-05-10T08:46:12.624Z,67.60
2023-05-10T08:48:42.998Z,66.50
2023-05-10T08:51:14.954Z,66.50
2023-05-10T08:53:43.695Z,66.60
2023-05-10T08:56:11.975Z,66.30
2023-05-10T08:58:40.592Z,64.60
2023-05-10T09:01:09.915Z,65.50
2023-05-10T09:03:42.294Z,65.10
2023-05-10T09:06:10.944Z,64.60
2023-05-10T09:08:39.763Z,64.70
2023-05-10T09:11:08.234Z,64.80
2023-05-10T09:13:38.025Z,65.10
2023-05-10T09:16:20.332Z,65.50
2023-05-10T09:18:52.136Z,65.70
2023-05-10T09:21:22.303Z,65.40
2023-05-10T09:23:51.447Z,64.80
2023-05-10T09:26:23.958Z,63.50
2023-05-10T09:28:57.098Z,62.70
2023-05-10T09:31:26.481Z,62.70
2023-05-10T09:33:56.482Z,62.70
2023-05-10T09:36:24.751Z,63.00
2023-05-10T09:38:54.624Z,63.40
2023-05-10T09:41:24.705Z,62.70
2023-05-10T09:43:57.983Z,62.70
2023-05-10T09:46:27.057Z,61.80
2023-05-10T09:48:56.755Z,61.60
2023-05-10T09:51:27.982Z,61.20
2023-05-10T09:54:12.348Z,60.30
2023-05-10T09:56:41.709Z,60.60
2023-05-10T09:59:12.784Z,60.20
2023-05-10T10:01:41.711Z,59.70
2023-05-10T10:04:12.584Z,60.40
2023-05-10T10:06:41.583Z,60.10
2023-05-10T10:09:10.646Z,58.90
2023-05-10T10:11:40.828Z,59.20
2023-05-10T10:14:09.138Z,59.20
2023-05-10T10:16:43.530Z,59.10
2023-05-10T10:19:18.758Z,58.90
2023-05-10T10:21:47.251Z,59.40
2023-05-10T10:24:15.545Z,59.60
2023-05-10T10:26:45.057Z,60.20
2023-05-10T10:29:23.817Z,60.70
2023-05-10T10:31:59.895Z,61.30
2023-05-10T10:34:30.856Z,61.40
2023-05-10T10:36:59.999Z,61.50
2023-05-10T10:39:29.387Z,62.00
2023-05-10T10:41:58.522Z,62.10
2023-05-10T10:44:28.976Z,62.20
2023-05-10T10:47:30.807Z,62.90
2023-05-10T10:50:08.605Z,63.70
2023-05-10T10:52:50.605Z,64.00
2023-05-10T11:08:50.676Z,63.90
2023-05-10T11:11:19.674Z,66.50
2023-05-10T11:13:51.409Z,65.70
2023-05-10T11:16:21.705Z,65.10
2023-05-10T11:19:04.595Z,65.00
2023-05-10T11:21:33.563Z,64.80
2023-05-10T11:24:07.189Z,65.10
2023-05-10T11:26:37.592Z,65.10
2023-05-10T11:29:06.258Z,65.10
2023-05-10T11:31:34.735Z,65.00
2023-05-10T11:34:03.498Z,64.50
2023-05-10T11:36:34.953Z,64.40
2023-05-10T11:39:05.656Z,63.30
2023-05-10T11:41:34.225Z,63.60
2023-05-10T11:44:02.516Z,63.50
2023-05-10T11:46:31.147Z,63.80
2023-05-10T11:49:05.216Z,63.90
2023-05-10T11:51:36.706Z,64.20
2023-05-10T11:54:08.939Z,64.40
2023-05-10T11:56:37.246Z,64.60
2023-05-10T11:59:06.771Z,64.90
2023-05-10T12:01:35.522Z,65.00
2023-05-10T12:04:04.197Z,64.70
2023-05-10T12:06:34.968Z,65.20
2023-05-10T12:09:10.080Z,63.80
2023-05-10T12:11:43.474Z,63.60
2023-05-10T12:14:12.705Z,63.40
2023-05-10T12:16:41.186Z,63.70
2023-05-10T12:19:11.867Z,63.30
2023-05-10T12:21:42.619Z,63.30
2023-05-10T12:24:12.504Z,63.60
2023-05-10T12:26:43.499Z,62.80
2023-05-10T12:29:16.698Z,63.00
2023-05-10T12:32:02.974Z,61.20
2023-05-10T12:34:34.151Z,60.20
2023-05-10T12:37:03.746Z,59.70
2023-05-10T12:39:43.114Z,60.10
2023-05-10T12:42:11.884Z,60.20
2023-05-10T12:44:40.891Z,60.60
2023-05-10T12:47:09.228Z,60.60
2023-05-10T12:49:37.688Z,60.80
2023-05-10T12:52:06.204Z,60.40
2023-05-10T12:54:34.423Z,60.20
2023-05-10T12:57:04.146Z,60.40
2023-05-10T12:59:32.487Z,60.20
2023-05-10T13:02:00.768Z,60.20
2023-05-10T13:04:29.089Z,59.90
2023-05-10T13:06:59.941Z,60.20
2023-05-10T13:09:30.377Z,60.10
2023-05-10T13:11:58.725Z,59.60
2023-05-10T13:14:28.900Z,59.40
2023-05-10T13:16:57.195Z,59.80
2023-05-10T13:19:25.562Z,59.70
2023-05-10T13:21:53.935Z,59.80
2023-05-10T13:24:22.769Z,59.70
2023-05-10T13:26:51.143Z,59.70
2023-05-10T13:29:20.292Z,59.10
2023-05-10T13:31:50.200Z,59.30
2023-05-10T13:34:21.338Z,59.10
2023-05-10T13:36:49.965Z,58.10
2023-05-10T13:39:18.301Z,58.40
2023-05-10T13:41:46.488Z,58.60
2023-05-10T13:44:15.687Z,58.70
2023-05-10T13:46:44.521Z,58.90
2023-05-10T13:49:14.226Z,59.10
2023-05-10T13:51:42.405Z,59.20
2023-05-10T13:54:12.056Z,59.20
2023-05-10T13:56:41.882Z,58.80
2023-05-10T13:59:10.227Z,59.20
2023-05-10T14:01:38.936Z,59.30
2023-05-10T14:04:08.171Z,59.00
2023-05-10T14:06:37.899Z,59.30
2023-05-10T14:09:06.450Z,58.90
2023-05-10T14:11:34.693Z,59.30
2023-05-10T14:14:03.566Z,59.50
2023-05-10T14:16:31.810Z,59.10
2023-05-10T14:19:00.131Z,59.30
2023-05-10T14:21:29.892Z,59.30
2023-05-10T14:23:59.583Z,59.30
2023-05-10T14:26:28.537Z,59.50
2023-05-10T14:28:56.855Z,59.70
2023-05-10T14:31:26.665Z,59.70
2023-05-10T14:33:55.290Z,59.80
2023-05-10T14:36:23.583Z,60.00
2023-05-10T14:38:51.836Z,60.10
2023-05-10T14:41:21.550Z,60.20
2023-05-10T14:43:49.856Z,60.10
2023-05-10T14:46:18.157Z,60.20
2023-05-10T14:48:46.781Z,60.20
2023-05-10T14:51:15.005Z,60.20
2023-05-10T14:53:43.345Z,59.90
2023-05-10T14:56:11.573Z,59.80
2023-05-10T14:58:41.286Z,59.20
2023-05-10T15:01:09.583Z,58.90
2023-05-10T15:03:38.612Z,58.90
2023-05-10T15:06:07.934Z,58.50
2023-05-10T15:08:36.246Z,58.60
2023-05-10T15:11:04.499Z,58.40
2023-05-10T15:13:32.807Z,58.40
2023-05-10T15:16:02.563Z,58.20
2023-05-10T15:18:30.995Z,58.10
2023-05-10T15:20:59.460Z,58.40
2023-05-10T15:23:30.802Z,58.30
2023-05-10T15:25:58.983Z,58.50
2023-05-10T15:28:27.308Z,58.40
2023-05-10T15:30:55.532Z,58.40
2023-05-10T15:33:25.517Z,57.90
2023-05-10T15:35:54.646Z,57.80
2023-05-10T15:38:23.665Z,57.40
2023-05-10T15:40:52.025Z,57.10
2023-05-10T15:43:20.369Z,57.20
2023-05-10T15:45:48.611Z,57.10
2023-05-10T15:48:17.435Z,57.30
2023-05-10T15:50:49.345Z,57.30
2023-05-10T15:53:17.583Z,57.10
2023-05-10T15:55:45.764Z,57.00
2023-05-10T15:58:14.068Z,57.20
2023-05-10T16:00:42.382Z,57.20
2023-05-10T16:03:10.714Z,57.10
2023-05-10T16:05:39.102Z,57.30
2023-05-10T16:08:08.965Z,57.30
2023-05-10T16:10:38.317Z,57.50
2023-05-10T16:13:06.648Z,57.60
2023-05-10T16:15:34.887Z,57.80
2023-05-10T16:18:05.153Z,57.90
2023-05-10T16:20:34.311Z,58.10
2023-05-10T16:23:05.580Z,58.20
2023-05-10T16:25:35.765Z,58.20
2023-05-10T16:28:04.138Z,58.50
2023-05-10T16:30:32.400Z,58.60
2023-05-10T16:33:02.511Z,58.60
2023-05-10T16:35:31.146Z,58.80
2023-05-10T16:38:02.363Z,58.90
2023-05-10T16:40:31.021Z,58.90
2023-05-10T16:43:08.628Z,59.10
2023-05-10T16:45:39.724Z,59.20
2023-05-10T16:48:08.452Z,59.20
2023-05-10T16:50:38.670Z,59.20
2023-05-10T16:53:06.906Z,59.30
2023-05-10T16:55:36.577Z,59.80
2023-05-10T16:58:06.238Z,59.70
2023-05-10T17:00:34.560Z,59.80
2023-05-10T17:03:02.951Z,59.80
2023-05-10T17:05:31.160Z,60.50
2023-05-10T17:07:59.464Z,60.70
2023-05-10T17:10:27.724Z,61.00
2023-05-10T17:12:55.972Z,61.50
2023-05-10T17:15:27.311Z,62.20
2023-05-10T17:17:55.701Z,63.00
2023-05-10T17:20:24.098Z,62.70
2023-05-10T17:22:52.348Z,63.20
2023-05-10T17:25:20.944Z,63.00
2023-05-10T17:27:49.184Z,63.10
2023-05-10T17:30:22.570Z,63.30
2023-05-10T17:32:52.316Z,64.40
2023-05-10T17:35:20.992Z,66.20
2023-05-10T17:37:49.258Z,66.60
2023-05-10T17:40:17.580Z,66.20
2023-05-10T17:42:45.946Z,67.00
2023-05-10T17:45:14.509Z,66.80
2023-05-10T17:47:43.118Z,66.80
2023-05-10T17:50:13.159Z,66.70
2023-05-10T17:52:41.460Z,67.20
2023-05-10T17:55:13.472Z,68.50
2023-05-10T17:57:41.743Z,68.10
2023-05-10T18:00:11.391Z,67.70
2023-05-10T18:02:39.968Z,67.70
2023-05-10T18:05:12.225Z,68.70
2023-05-10T18:07:41.993Z,68.70
2023-05-10T18:10:11.655Z,68.50
2023-05-10T18:12:39.964Z,69.10
2023-05-10T18:15:09.326Z,69.00
2023-05-10T18:17:39.945Z,68.60
2023-05-10T18:20:09.606Z,68.50
2023-05-10T18:22:37.858Z,68.90
2023-05-10T18:25:08.857Z,69.10
2023-05-10T18:27:37.178Z,69.10
2023-05-10T18:30:06.390Z,70.00
2023-05-10T18:32:34.764Z,69.60
2023-05-10T18:35:04.206Z,70.00
2023-05-10T18:37:38.736Z,69.80
2023-05-10T18:40:12.598Z,70.50
2023-05-10T18:42:41.718Z,70.70
2023-05-10T18:45:10.747Z,71.00
2023-05-10T18:47:39.063Z,71.00
2023-05-10T18:50:08.564Z,73.30
2023-05-10T18:52:37.294Z,73.30
2023-05-10T18:55:08.675Z,72.70
2023-05-10T18:57:41.352Z,72.50
2023-05-10T19:00:12.383Z,72.50
2023-05-10T19:02:41.246Z,72.80
2023-05-10T19:05:10.366Z,72.50
2023-05-10T19:07:38.651Z,72.50
2023-05-10T19:10:09.383Z,72.40
2023-05-10T19:12:37.708Z,73.70
2023-05-10T19:15:06.816Z,73.30
2023-05-10T19:17:36.954Z,73.50
2023-05-10T19:20:10.600Z,73.70
2023-05-10T19:22:54.090Z,73.30
2023-05-10T19:25:29.607Z,73.30
2023-05-10T19:27:58.617Z,73.50
2023-05-10T19:30:30.309Z,74.20
2023-05-10T19:32:59.393Z,73.60
2023-05-10T19:35:27.987Z,73.40
2023-05-10T19:37:56.294Z,73.60
2023-05-10T19:40:24.652Z,74.10
2023-05-10T19:42:56.967Z,74.00
2023-05-10T19:45:25.252Z,74.10
2023-05-10T19:47:53.569Z,74.40
2023-05-10T19:50:21.901Z,74.80
2023-05-10T19:52:50.629Z,74.70
2023-05-10T19:55:28.002Z,74.60
2023-05-10T19:58:00.470Z,75.70
2023-05-10T20:00:29.162Z,75.20
2023-05-10T20:02:57.416Z,75.60
2023-05-10T20:05:26.163Z,75.60
2023-05-10T20:07:54.658Z,75.70
2023-05-10T20:10:24.759Z,75.60
2023-05-10T20:12:54.719Z,75.80
2023-05-10T20:15:25.041Z,75.60
2023-05-10T20:17:54.056Z,75.90
2023-05-10T20:20:23.702Z,75.70
2023-05-10T20:22:52.065Z,75.70
2023-05-10T20:25:20.604Z,75.80
2023-05-10T20:27:50.847Z,76.00
2023-05-10T20:30:19.644Z,76.00
2023-05-10T20:32:49.787Z,76.00
2023-05-10T20:35:18.207Z,76.00
2023-05-10T20:37:48.414Z,76.40
2023-05-10T20:40:16.821Z,76.30
2023-05-10T20:42:45.394Z,76.60
2023-05-10T20:45:13.867Z,76.50
2023-05-10T20:47:42.546Z,76.40
2023-05-10T20:50:12.797Z,76.30
2023-05-10T20:52:40.968Z,76.30
2023-05-10T20:55:09.993Z,76.30
2023-05-10T20:57:38.275Z,76.70
2023-05-10T21:00:07.683Z,76.40
2023-05-10T21:02:36.047Z,76.30
2023-05-10T21:05:04.400Z,76.30
2023-05-10T21:07:34.116Z,76.30
2023-05-10T21:10:02.361Z,76.70
2023-05-10T21:12:30.745Z,76.30
2023-05-10T21:14:58.976Z,75.70
2023-05-10T21:17:27.260Z,75.50
2023-05-10T21:19:55.676Z,75.00
2023-05-10T21:22:24.010Z,73.90
2023-05-10T21:24:53.571Z,74.10
2023-05-10T21:27:22.074Z,73.80
2023-05-10T21:29:50.374Z,73.80
2023-05-10T21:32:18.700Z,73.90
2023-05-10T21:34:47.080Z,74.00
2023-05-10T21:37:16.560Z,73.90
2023-05-10T21:39:44.812Z,73.90
2023-05-10T21:42:14.505Z,74.10
2023-05-10T21:44:42.736Z,74.20
2023-05-10T21:47:11.021Z,74.30
2023-05-10T21:49:39.236Z,74.50
2023-05-10T21:52:07.420Z,74.50
2023-05-10T21:54:37.326Z,74.70
2023-05-10T21:57:05.733Z,74.60
2023-05-10T21:59:35.509Z,74.60
2023-05-10T22:02:03.821Z,75.40
2023-05-10T22:04:32.144Z,74.90
2023-05-10T22:07:00.456Z,74.60
2023-05-10T22:09:28.930Z,74.60
2023-05-10T22:11:57.204Z,74.50
2023-05-10T22:14:25.466Z,74.60
2023-05-10T22:16:55.084Z,74.70
2023-05-10T22:19:23.443Z,74.70
2023-05-10T22:21:51.674Z,74.60
2023-05-10T22:24:19.933Z,74.60
2023-05-10T22:26:48.173Z,74.60
2023-05-10T22:29:16.454Z,74.70
2023-05-10T22:31:44.615Z,75.00
2023-05-10T22:34:14.429Z,74.90
2023-05-10T22:36:42.719Z,74.90
2023-05-10T22:39:11.001Z,74.90
2023-05-10T22:41:39.341Z,75.00
2023-05-10T22:44:08.306Z,75.00
2023-05-10T22:46:37.476Z,75.20
2023-05-10T22:49:06.341Z,75.20
2023-05-10T22:51:35.969Z,75.30
2023-05-10T22:54:04.169Z,75.40
2023-05-10T22:56:33.108Z,75.30
2023-05-10T22:59:01.538Z,75.30
2023-05-10T23:01:30.711Z,75.40
2023-05-10T23:03:59.062Z,75.50
2023-05-10T23:06:36.757Z,75.80
2023-05-10T23:09:05.086Z,75.80
2023-05-10T23:11:33.397Z,75.70
2023-05-10T23:14:01.732Z,75.90
2023-05-10T23:16:30.622Z,75.90
2023-05-10T23:18:59.054Z,76.20
2023-05-10T23:21:28.320Z,76.30
2023-05-10T23:23:59.812Z,76.30
2023-05-10T23:26:28.160Z,76.50
2023-05-10T23:28:56.464Z,76.60
2023-05-10T23:31:24.743Z,76.70
2023-05-10T23:33:53.004Z,76.80
2023-05-10T23:36:21.238Z,76.90
2023-05-10T23:38:49.600Z,77.20
2023-05-10T23:41:19.228Z,77.50
2023-05-10T23:43:47.511Z,77.50
2023-05-10T23:46:15.846Z,77.60
2023-05-10T23:48:44.124Z,78.10
2023-05-10T23:51:12.536Z,78.10
2023-05-10T23:53:40.816Z,78.00
2023-05-10T23:56:09.073Z,77.90
2023-05-10T23:58:38.759Z,77.70
